METAR Data
IDs: Format: Raw Decoded Include TAF

Data at: 2328 UTC 29 May 2020

METAR for:KEOK (Keokuk Muni, IA, US)
Text:KEOK 292315Z AUTO 34009G14KT 10SM SCT050 20/10 A3011 RMK AO2
Temperature: 20.0°C ( 68°F)
Dewpoint: 10.0°C ( 50°F) [RH = 53%]
Pressure (altimeter):30.11 inches Hg (1019.7 mb)
Winds:from the NNW (340 degrees) at 10 MPH (9 knots; 4.6 m/s) gusting to 16 MPH (14 knots; 7.2 m/s)
Visibility:10 or more sm (16+ km)
Ceiling:at least 12,000 feet AGL
Clouds: scattered clouds at 5000 feet AGL
QC Flag:automated observation with no human augmentation